createdAt,value
2023-05-30T00:00:15.019Z,3.97
2023-05-30T00:02:45.261Z,3.70
2023-05-30T00:05:13.498Z,3.80
2023-05-30T00:07:40.783Z,3.58
2023-05-30T00:10:08.093Z,4.97
2023-05-30T00:12:36.355Z,3.75
2023-05-30T00:15:06.412Z,3.65
2023-05-30T00:17:33.912Z,3.67
2023-05-30T00:20:00.831Z,3.90
2023-05-30T00:22:27.632Z,4.78
2023-05-30T00:24:54.416Z,3.42
2023-05-30T00:27:21.133Z,4.40
2023-05-30T00:29:47.836Z,3.63
2023-05-30T00:32:14.667Z,3.72
2023-05-30T00:34:41.606Z,3.00
2023-05-30T00:37:10.158Z,4.32
2023-05-30T00:39:37.180Z,4.07
2023-05-30T00:42:06.311Z,3.42
2023-05-30T00:44:33.066Z,3.67
2023-05-30T00:47:00.111Z,2.92
2023-05-30T00:49:28.103Z,3.53
2023-05-30T00:51:55.027Z,3.53
2023-05-30T00:54:23.066Z,3.22
2023-05-30T00:56:50.461Z,3.75
2023-05-30T00:59:17.501Z,4.03
2023-05-30T01:01:44.601Z,3.47
2023-05-30T01:04:11.436Z,3.55
2023-05-30T01:06:40.978Z,4.20
2023-05-30T01:09:07.773Z,3.65
2023-05-30T01:11:53.404Z,3.25
2023-05-30T01:14:35.166Z,3.53
2023-05-30T01:17:34.811Z,3.47
2023-05-30T01:20:08.658Z,4.15
2023-05-30T01:22:42.664Z,3.88
2023-05-30T01:25:36.787Z,4.07
2023-05-30T01:28:11.635Z,4.65
2023-05-30T01:30:41.286Z,2.92
2023-05-30T01:33:08.786Z,4.80
2023-05-30T01:35:35.620Z,4.95
2023-05-30T01:38:02.505Z,3.95
2023-05-30T01:40:31.256Z,2.85
2023-05-30T01:43:37.050Z,3.95
2023-05-30T01:46:16.745Z,3.25
2023-05-30T01:48:52.985Z,3.55
2023-05-30T01:51:25.761Z,3.28
2023-05-30T01:54:00.400Z,5.28
2023-05-30T01:56:28.982Z,3.88
2023-05-30T01:58:55.991Z,3.80
2023-05-30T02:01:26.102Z,4.40
2023-05-30T02:03:55.135Z,3.78
2023-05-30T02:06:23.507Z,3.53
2023-05-30T02:08:50.991Z,4.50
2023-05-30T02:11:18.571Z,4.43
2023-05-30T02:13:47.063Z,4.07
2023-05-30T02:16:14.696Z,3.88
2023-05-30T02:18:42.499Z,5.32
2023-05-30T02:21:09.275Z,4.45
2023-05-30T02:23:36.683Z,3.53
2023-05-30T02:26:06.199Z,3.88
2023-05-30T02:28:33.031Z,3.20
2023-05-30T02:30:59.932Z,3.80
2023-05-30T02:33:27.291Z,3.30
2023-05-30T02:35:54.005Z,2.92
2023-05-30T02:38:22.728Z,3.95
2023-05-30T02:40:49.706Z,4.00
2023-05-30T02:43:20.997Z,5.47
2023-05-30T02:45:49.572Z,4.40
2023-05-30T02:48:17.485Z,3.55
2023-05-30T02:50:44.251Z,4.28
2023-05-30T02:53:16.805Z,3.70
2023-05-30T02:55:44.619Z,3.85
2023-05-30T02:58:36.696Z,3.80
2023-05-30T03:01:25.306Z,3.92
2023-05-30T03:03:52.230Z,3.25
2023-05-30T03:06:29.035Z,4.13
2023-05-30T03:09:08.499Z,3.83
2023-05-30T03:11:36.561Z,4.38
2023-05-30T03:14:03.281Z,5.18
2023-05-30T03:16:30.074Z,4.20
2023-05-30T03:18:58.472Z,3.72
2023-05-30T03:21:25.399Z,4.95
2023-05-30T03:23:53.456Z,4.20
2023-05-30T03:26:24.734Z,4.18
2023-05-30T03:28:51.758Z,3.70
2023-05-30T03:31:22.318Z,3.83
2023-05-30T03:33:50.006Z,3.50
2023-05-30T03:36:18.468Z,3.22
2023-05-30T03:38:45.417Z,4.80
2023-05-30T03:41:12.312Z,3.20
2023-05-30T03:43:39.054Z,3.30
2023-05-30T03:46:05.888Z,3.55
2023-05-30T03:48:32.627Z,3.20
2023-05-30T03:51:01.249Z,3.88
2023-05-30T03:53:28.019Z,4.72
2023-05-30T03:55:54.692Z,3.78
2023-05-30T03:58:21.424Z,3.50
2023-05-30T04:00:48.131Z,3.95
2023-05-30T04:03:15.045Z,3.53
2023-05-30T04:05:42.286Z,3.90
2023-05-30T04:08:08.960Z,4.15
2023-05-30T04:10:35.600Z,3.78
2023-05-30T04:13:02.356Z,2.80
2023-05-30T04:15:29.141Z,3.97
2023-05-30T04:17:56.888Z,3.42
2023-05-30T04:20:25.197Z,3.33
2023-05-30T04:22:52.279Z,3.50
2023-05-30T04:25:19.779Z,3.90
2023-05-30T04:27:50.636Z,3.58
2023-05-30T04:30:19.514Z,3.35
2023-05-30T04:32:46.812Z,3.05
2023-05-30T04:35:16.649Z,2.60
2023-05-30T04:37:46.460Z,3.25
2023-05-30T04:40:18.184Z,2.70
2023-05-30T04:42:51.560Z,2.92
2023-05-30T04:45:19.738Z,3.42
2023-05-30T04:47:46.885Z,2.85
2023-05-30T04:50:15.536Z,2.70
2023-05-30T04:52:45.504Z,2.65
2023-05-30T04:55:12.215Z,3.53
2023-05-30T04:57:41.862Z,2.95
2023-05-30T05:00:15.617Z,2.63
2023-05-30T05:02:45.996Z,2.90
2023-05-30T05:05:12.892Z,2.67
2023-05-30T05:07:42.043Z,2.90
2023-05-30T05:10:11.000Z,3.13
2023-05-30T05:12:37.751Z,2.72
2023-05-30T05:15:04.852Z,2.72
2023-05-30T05:17:31.580Z,3.00
2023-05-30T05:20:05.926Z,3.08
2023-05-30T05:22:36.483Z,3.03
2023-05-30T05:25:05.646Z,3.28
2023-05-30T05:27:32.391Z,2.65
2023-05-30T05:29:59.121Z,3.63
2023-05-30T05:32:25.875Z,3.05
2023-05-30T05:34:53.539Z,3.45
2023-05-30T05:37:20.568Z,2.88
2023-05-30T05:39:47.455Z,2.70
2023-05-30T05:42:14.142Z,2.78
2023-05-30T05:44:40.809Z,2.65
2023-05-30T05:47:07.962Z,3.10
2023-05-30T05:49:34.636Z,2.88
2023-05-30T05:52:01.886Z,2.80
2023-05-30T05:54:28.764Z,3.30
2023-05-30T05:56:55.518Z,2.95
2023-05-30T05:59:22.247Z,3.17
2023-05-30T06:01:48.920Z,2.80
2023-05-30T06:04:15.676Z,2.50
2023-05-30T06:06:42.422Z,2.50
2023-05-30T06:09:09.150Z,2.95
2023-05-30T06:11:35.893Z,2.70
2023-05-30T06:14:04.976Z,2.92
2023-05-30T06:16:31.760Z,2.70
2023-05-30T06:18:58.500Z,2.65
2023-05-30T06:21:25.332Z,2.03
2023-05-30T06:23:52.012Z,2.35
2023-05-30T06:26:18.719Z,1.80
2023-05-30T06:28:52.206Z,2.17
2023-05-30T06:31:18.945Z,2.03
2023-05-30T06:33:45.675Z,1.50
2023-05-30T06:36:12.712Z,1.80
2023-05-30T06:38:39.528Z,1.70
2023-05-30T06:41:06.265Z,2.40
2023-05-30T06:43:33.023Z,1.83
2023-05-30T06:46:02.680Z,2.67
2023-05-30T06:48:29.449Z,1.95
2023-05-30T06:50:57.755Z,2.33
2023-05-30T06:53:25.004Z,2.00
2023-05-30T06:55:51.813Z,3.00
2023-05-30T06:58:19.034Z,2.28
2023-05-30T07:00:45.852Z,2.03
2023-05-30T07:03:12.610Z,2.10
2023-05-30T07:05:39.344Z,2.92
2023-05-30T07:08:06.111Z,2.90
2023-05-30T07:10:32.795Z,2.05
2023-05-30T07:12:59.543Z,1.95
2023-05-30T07:15:27.086Z,1.90
2023-05-30T07:17:53.827Z,1.63
2023-05-30T07:20:24.169Z,0.85
2023-05-30T07:22:51.927Z,1.45
2023-05-30T07:25:21.183Z,1.13
2023-05-30T07:27:55.397Z,1.00
2023-05-30T07:30:22.689Z,1.27
2023-05-30T07:32:50.560Z,1.02
2023-05-30T07:35:17.387Z,0.90
2023-05-30T07:37:44.067Z,1.00
2023-05-30T07:40:11.006Z,1.00
2023-05-30T07:42:38.032Z,0.95
2023-05-30T07:45:05.087Z,0.40
2023-05-30T07:47:32.043Z,0.60
2023-05-30T07:49:58.756Z,0.60
2023-05-30T07:52:25.996Z,0.90
2023-05-30T07:54:52.724Z,0.73
2023-05-30T07:57:21.716Z,1.00
2023-05-30T07:59:49.792Z,0.93
2023-05-30T08:02:17.185Z,1.00
2023-05-30T08:04:44.701Z,1.23
2023-05-30T08:07:11.533Z,1.08
2023-05-30T08:09:38.308Z,0.68
2023-05-30T08:12:06.283Z,0.50
2023-05-30T08:14:34.536Z,0.95
2023-05-30T08:17:02.360Z,1.42
2023-05-30T08:19:32.825Z,0.93
2023-05-30T08:21:59.730Z,1.10
2023-05-30T08:24:29.432Z,1.08
2023-05-30T08:26:57.662Z,1.48
2023-05-30T08:29:29.658Z,1.17
2023-05-30T08:32:01.864Z,0.80
2023-05-30T08:34:28.848Z,1.13
2023-05-30T08:36:58.915Z,0.90
2023-05-30T08:39:25.569Z,1.05
2023-05-30T08:41:52.249Z,0.80
2023-05-30T08:44:19.072Z,0.90
2023-05-30T08:46:46.237Z,1.65
2023-05-30T08:49:19.284Z,0.88
2023-05-30T08:51:49.680Z,0.90
2023-05-30T08:54:24.602Z,1.00
2023-05-30T08:57:10.844Z,0.80
2023-05-30T08:59:37.582Z,1.08
2023-05-30T09:02:05.302Z,1.55
2023-05-30T09:04:32.046Z,0.77
2023-05-30T09:06:58.930Z,0.80
2023-05-30T09:09:25.764Z,1.10
2023-05-30T09:11:53.257Z,0.63
2023-05-30T09:14:20.019Z,0.65
2023-05-30T09:16:47.522Z,0.98
2023-05-30T09:19:14.212Z,0.75
2023-05-30T09:21:41.170Z,0.77
2023-05-30T09:24:08.079Z,1.02
2023-05-30T09:26:34.828Z,0.80
2023-05-30T09:29:11.626Z,0.70
2023-05-30T09:31:39.033Z,0.82
2023-05-30T09:34:08.610Z,0.70
2023-05-30T09:36:36.704Z,0.63
2023-05-30T09:39:06.856Z,0.93
2023-05-30T09:41:34.197Z,0.57
2023-05-30T09:44:05.225Z,0.68
2023-05-30T09:46:32.018Z,0.80
2023-05-30T09:48:58.943Z,0.82
2023-05-30T09:51:27.066Z,0.68
2023-05-30T09:53:55.515Z,0.45
2023-05-30T09:56:41.428Z,0.80
2023-05-30T09:59:12.236Z,0.60
2023-05-30T10:01:44.488Z,0.60
2023-05-30T10:04:15.834Z,0.73
2023-05-30T10:06:45.335Z,0.40
2023-05-30T10:09:14.709Z,0.40
2023-05-30T10:11:44.985Z,0.60
2023-05-30T10:14:13.155Z,1.00
2023-05-30T10:16:55.477Z,0.90
2023-05-30T10:19:27.209Z,0.35
2023-05-30T10:24:23.725Z,0.50
2023-05-30T10:26:55.527Z,0.80
2023-05-30T10:29:25.710Z,1.05
2023-05-30T10:31:54.744Z,0.90
2023-05-30T10:34:27.098Z,1.35
2023-05-30T10:36:54.628Z,1.00
2023-05-30T10:39:30.251Z,0.52
2023-05-30T10:41:58.014Z,0.50
2023-05-30T10:44:42.909Z,0.50
2023-05-30T10:47:28.276Z,0.82
2023-05-30T10:49:57.494Z,1.08
2023-05-30T10:52:34.367Z,0.68
2023-05-30T10:55:01.919Z,0.68
2023-05-30T10:57:34.574Z,0.90
2023-05-30T11:00:11.080Z,1.17
2023-05-30T11:02:39.204Z,1.27
2023-05-30T11:05:10.811Z,1.58
2023-05-30T11:07:46.659Z,1.00
2023-05-30T11:10:14.928Z,1.08
2023-05-30T11:12:46.121Z,0.82
2023-05-30T11:15:17.240Z,0.90
2023-05-30T11:17:44.205Z,1.25
2023-05-30T11:20:18.088Z,0.80
2023-05-30T11:23:05.337Z,0.68
2023-05-30T11:25:34.570Z,0.77
2023-05-30T11:28:02.352Z,1.20
2023-05-30T11:30:29.072Z,1.02
2023-05-30T11:32:57.606Z,1.42
2023-05-30T11:35:24.822Z,1.40
2023-05-30T11:37:51.765Z,1.33
2023-05-30T11:40:22.530Z,1.00
2023-05-30T11:42:56.077Z,0.90
2023-05-30T11:45:27.449Z,1.00
2023-05-30T11:47:54.763Z,1.10
2023-05-30T11:50:22.233Z,0.80
2023-05-30T11:52:48.991Z,0.80
2023-05-30T11:55:15.842Z,0.70
2023-05-30T11:57:42.629Z,0.68
2023-05-30T12:00:13.155Z,1.00
2023-05-30T12:02:42.235Z,0.60
2023-05-30T12:05:09.664Z,0.63
2023-05-30T12:07:36.570Z,0.77
2023-05-30T12:10:03.432Z,0.60
2023-05-30T12:12:32.241Z,0.60
2023-05-30T12:15:03.118Z,0.88
2023-05-30T12:17:30.558Z,1.05
2023-05-30T12:20:01.233Z,1.55
2023-05-30T12:22:33.925Z,1.10
2023-05-30T12:25:05.533Z,1.15
2023-05-30T12:27:32.789Z,1.60
2023-05-30T12:30:18.363Z,1.25
2023-05-30T12:32:46.340Z,1.00
2023-05-30T12:35:14.193Z,1.85
2023-05-30T12:37:41.109Z,1.58
2023-05-30T12:40:08.225Z,1.40
2023-05-30T12:42:37.392Z,1.63
2023-05-30T12:45:08.545Z,1.50
2023-05-30T12:47:38.815Z,1.40
2023-05-30T12:50:09.691Z,1.65
2023-05-30T12:52:36.472Z,1.35
2023-05-30T12:55:03.353Z,1.45
2023-05-30T12:57:30.112Z,1.05
2023-05-30T12:59:59.886Z,1.30
2023-05-30T13:02:27.159Z,1.00
2023-05-30T13:04:54.808Z,0.93
2023-05-30T13:07:22.241Z,1.25
2023-05-30T13:09:49.138Z,1.40
2023-05-30T13:12:17.150Z,1.42
2023-05-30T13:14:45.841Z,1.08
2023-05-30T13:17:12.653Z,1.58
2023-05-30T13:19:39.941Z,1.98
2023-05-30T13:22:09.043Z,1.23
2023-05-30T13:24:35.988Z,1.10
2023-05-30T13:27:02.838Z,0.98
2023-05-30T13:29:29.561Z,0.93
2023-05-30T13:31:56.490Z,1.40
2023-05-30T13:34:23.358Z,1.40
2023-05-30T13:36:50.059Z,1.10
2023-05-30T13:39:16.823Z,1.38
2023-05-30T13:41:43.582Z,1.42
2023-05-30T13:44:11.688Z,1.75
2023-05-30T13:49:10.035Z,1.38
2023-05-30T13:51:37.687Z,1.67
2023-05-30T13:54:05.649Z,1.40
2023-05-30T13:56:32.895Z,1.60
2023-05-30T13:59:00.156Z,1.10
2023-05-30T14:01:28.173Z,1.83
2023-05-30T14:03:55.049Z,2.15
2023-05-30T14:06:21.886Z,1.45
2023-05-30T14:08:48.653Z,1.52
2023-05-30T14:11:15.541Z,1.60
2023-05-30T14:13:42.388Z,1.30
2023-05-30T14:16:10.394Z,1.63
2023-05-30T14:18:39.111Z,1.40
2023-05-30T14:21:05.904Z,1.40
2023-05-30T14:23:34.067Z,1.25
2023-05-30T14:26:01.211Z,1.65
2023-05-30T14:28:28.023Z,1.75
2023-05-30T14:30:54.950Z,2.00
2023-05-30T14:33:21.864Z,2.25
2023-05-30T14:35:48.669Z,1.60
2023-05-30T14:38:15.534Z,1.35
2023-05-30T14:40:42.208Z,2.15
2023-05-30T14:43:10.950Z,1.65
2023-05-30T14:45:37.958Z,2.17
2023-05-30T14:48:06.114Z,2.30
2023-05-30T14:50:33.581Z,1.30
2023-05-30T14:53:00.403Z,1.27
2023-05-30T14:55:27.446Z,1.33
2023-05-30T14:57:54.147Z,1.45
2023-05-30T15:00:23.573Z,1.40
2023-05-30T15:02:50.674Z,1.30
2023-05-30T15:05:20.223Z,1.33
2023-05-30T15:07:47.825Z,1.15
2023-05-30T15:10:15.611Z,1.65
2023-05-30T15:12:46.386Z,1.20
2023-05-30T15:15:13.633Z,1.45
2023-05-30T15:17:40.807Z,1.50
2023-05-30T15:20:08.868Z,1.75
2023-05-30T15:22:36.237Z,1.20
2023-05-30T15:25:03.472Z,1.42
2023-05-30T15:27:30.192Z,1.40
2023-05-30T15:29:56.976Z,1.60
2023-05-30T15:32:23.767Z,1.20
2023-05-30T15:34:50.703Z,1.10
2023-05-30T15:37:17.446Z,1.13
2023-05-30T15:39:44.367Z,1.33
2023-05-30T15:42:11.109Z,1.40
2023-05-30T15:44:39.965Z,1.35
2023-05-30T15:47:08.933Z,1.60
2023-05-30T15:49:36.772Z,1.48
2023-05-30T15:52:03.901Z,1.30
2023-05-30T15:54:34.645Z,1.40
2023-05-30T15:57:06.702Z,2.22
2023-05-30T15:59:33.425Z,1.63
2023-05-30T16:02:01.950Z,2.92
2023-05-30T16:04:28.919Z,1.30
2023-05-30T16:06:57.528Z,1.77
2023-05-30T16:09:24.940Z,2.42
2023-05-30T16:11:51.669Z,1.80
2023-05-30T16:14:20.216Z,1.77
2023-05-30T16:16:49.060Z,1.88
2023-05-30T16:19:15.975Z,1.73
2023-05-30T16:21:42.788Z,1.50
2023-05-30T16:24:09.801Z,1.27
2023-05-30T16:26:36.516Z,1.60
2023-05-30T16:29:03.213Z,1.60
2023-05-30T16:31:30.077Z,1.55
2023-05-30T16:33:57.015Z,1.38
2023-05-30T16:36:25.644Z,1.58
2023-05-30T16:38:55.733Z,1.50
2023-05-30T16:41:26.962Z,1.77
2023-05-30T16:43:55.385Z,2.22
2023-05-30T16:46:22.123Z,1.75
2023-05-30T16:48:49.038Z,1.15
2023-05-30T16:51:18.403Z,1.13
2023-05-30T16:53:45.901Z,1.20
2023-05-30T16:56:17.017Z,1.13
2023-05-30T16:58:47.741Z,1.42
2023-05-30T17:01:14.560Z,1.77
2023-05-30T17:03:46.207Z,1.60
2023-05-30T17:06:13.065Z,1.77
2023-05-30T17:08:42.164Z,1.40
2023-05-30T17:11:14.221Z,1.35
2023-05-30T17:13:40.928Z,2.72
2023-05-30T17:16:08.465Z,1.27
2023-05-30T17:18:35.315Z,1.48
2023-05-30T17:21:04.575Z,1.30
2023-05-30T17:23:32.184Z,1.75
2023-05-30T17:26:02.664Z,1.20
2023-05-30T17:28:30.475Z,1.20
2023-05-30T17:30:57.472Z,1.48
2023-05-30T17:33:24.212Z,1.35
2023-05-30T17:35:52.492Z,1.48
2023-05-30T17:38:19.383Z,1.20
2023-05-30T17:40:46.189Z,2.00
2023-05-30T17:43:12.995Z,1.95
2023-05-30T17:45:41.673Z,1.63
2023-05-30T17:48:11.854Z,1.83
2023-05-30T17:50:39.604Z,2.13
2023-05-30T17:53:06.763Z,2.13
2023-05-30T17:55:33.635Z,1.90
2023-05-30T17:58:00.561Z,2.22
2023-05-30T18:00:28.129Z,1.90
2023-05-30T18:02:57.174Z,1.63
2023-05-30T18:05:29.317Z,1.42
2023-05-30T18:07:56.098Z,2.03
2023-05-30T18:10:22.970Z,1.63
2023-05-30T18:12:49.684Z,1.65
2023-05-30T18:15:18.507Z,1.80
2023-05-30T18:17:45.253Z,1.42
2023-05-30T18:20:12.679Z,2.10
2023-05-30T18:22:39.986Z,1.70
2023-05-30T18:25:07.205Z,1.92
2023-05-30T18:27:34.017Z,1.63
2023-05-30T18:30:01.880Z,1.80
2023-05-30T18:32:28.641Z,1.85
2023-05-30T18:34:55.601Z,1.80
2023-05-30T18:37:23.716Z,2.40
2023-05-30T18:39:50.508Z,2.30
2023-05-30T18:42:17.611Z,1.90
2023-05-30T18:44:44.540Z,2.13
2023-05-30T18:47:11.913Z,2.30
2023-05-30T18:49:39.692Z,2.30
2023-05-30T18:52:06.916Z,2.65
2023-05-30T18:54:35.076Z,2.33
2023-05-30T18:57:04.458Z,2.40
2023-05-30T18:59:31.266Z,2.47
2023-05-30T19:01:58.267Z,3.00
2023-05-30T19:04:24.987Z,2.35
2023-05-30T19:06:56.809Z,2.65
2023-05-30T19:09:24.152Z,2.33
2023-05-30T19:11:51.483Z,2.80
2023-05-30T19:14:18.392Z,2.72
2023-05-30T19:16:45.098Z,2.30
2023-05-30T19:19:12.009Z,1.83
2023-05-30T19:21:38.800Z,2.00
2023-05-30T19:24:05.723Z,2.00
2023-05-30T19:26:32.579Z,1.80
2023-05-30T19:28:59.329Z,2.08
2023-05-30T19:31:26.209Z,1.75
2023-05-30T19:33:53.000Z,1.75
2023-05-30T19:36:19.739Z,1.80
2023-05-30T19:38:46.520Z,1.95
2023-05-30T19:41:14.102Z,1.77
2023-05-30T19:43:40.931Z,1.58
2023-05-30T19:46:08.360Z,2.17
2023-05-30T19:48:35.179Z,2.10
2023-05-30T19:51:02.047Z,2.10
2023-05-30T19:53:28.924Z,2.13
2023-05-30T19:55:55.761Z,2.30
2023-05-30T19:58:24.300Z,2.20
2023-05-30T20:00:51.847Z,2.10
2023-05-30T20:03:20.271Z,2.15
2023-05-30T20:05:47.159Z,2.13
2023-05-30T20:08:13.930Z,2.60
2023-05-30T20:10:40.831Z,2.20
2023-05-30T20:13:07.709Z,2.30
2023-05-30T20:15:34.502Z,2.78
2023-05-30T20:18:02.422Z,2.13
2023-05-30T20:20:29.864Z,1.92
2023-05-30T20:22:57.704Z,2.25
2023-05-30T20:25:25.011Z,2.35
2023-05-30T20:27:53.159Z,2.25
2023-05-30T20:30:20.072Z,2.30
2023-05-30T20:32:47.057Z,2.25
2023-05-30T20:35:14.010Z,2.47
2023-05-30T20:37:40.908Z,2.53
2023-05-30T20:40:08.089Z,2.38
2023-05-30T20:42:35.158Z,3.10
2023-05-30T20:45:02.431Z,2.58
2023-05-30T20:47:30.233Z,2.35
2023-05-30T20:50:04.330Z,2.70
2023-05-30T20:52:31.866Z,2.78
2023-05-30T20:54:58.759Z,2.47
2023-05-30T20:57:25.603Z,2.78
2023-05-30T20:59:53.277Z,2.53
2023-05-30T21:02:20.126Z,2.53
2023-05-30T21:04:47.087Z,2.60
2023-05-30T21:07:13.894Z,2.70
2023-05-30T21:09:43.845Z,2.60
2023-05-30T21:14:43.372Z,2.75
2023-05-30T21:15:09.820Z,2.70
2023-05-30T21:17:38.882Z,2.80
2023-05-30T21:20:08.480Z,3.45
2023-05-30T21:22:35.233Z,2.92
2023-05-30T21:25:02.047Z,2.40
2023-05-30T21:27:28.765Z,2.10
2023-05-30T21:29:55.557Z,2.80
2023-05-30T21:32:22.391Z,2.65
2023-05-30T21:34:49.233Z,2.90
2023-05-30T21:37:15.968Z,3.33
2023-05-30T21:39:42.783Z,2.80
2023-05-30T21:42:13.012Z,2.67
2023-05-30T21:44:39.729Z,3.00
2023-05-30T21:47:06.731Z,3.03
2023-05-30T21:49:33.423Z,2.53
2023-05-30T21:52:00.148Z,2.58
2023-05-30T21:54:39.998Z,2.70
2023-05-30T21:57:07.337Z,2.65
2023-05-30T21:59:35.761Z,2.78
2023-05-30T22:02:06.601Z,2.17
2023-05-30T22:04:36.518Z,2.65
2023-05-30T22:07:07.022Z,3.28
2023-05-30T22:09:34.827Z,3.58
2023-05-30T22:12:01.525Z,3.45
2023-05-30T22:14:28.253Z,3.40
2023-05-30T22:16:54.955Z,3.88
2023-05-30T22:19:21.659Z,3.28
2023-05-30T22:22:02.129Z,3.67
2023-05-30T22:24:30.070Z,3.65
2023-05-30T22:26:56.772Z,3.50
2023-05-30T22:29:23.498Z,3.80
2023-05-30T22:31:50.525Z,4.22
2023-05-30T22:34:17.339Z,3.80
2023-05-30T22:36:46.594Z,3.13
2023-05-30T22:39:16.691Z,3.50
2023-05-30T22:41:43.507Z,3.70
2023-05-30T22:44:10.193Z,4.30
2023-05-30T22:46:36.884Z,3.97
2023-05-30T22:49:03.659Z,4.05
2023-05-30T22:51:30.541Z,4.53
2023-05-30T22:53:57.701Z,4.88
2023-05-30T22:56:24.465Z,4.85
2023-05-30T22:58:51.183Z,5.03
2023-05-30T23:01:18.071Z,5.13
2023-05-30T23:03:45.011Z,4.32
2023-05-30T23:06:11.816Z,3.78
2023-05-30T23:08:38.485Z,5.38
2023-05-30T23:11:05.396Z,4.50
2023-05-30T23:13:32.100Z,5.70
2023-05-30T23:15:58.858Z,5.60
2023-05-30T23:18:25.807Z,5.20
2023-05-30T23:20:52.543Z,4.82
2023-05-30T23:23:19.296Z,5.20
2023-05-30T23:25:45.950Z,5.30
2023-05-30T23:28:12.701Z,5.60
2023-05-30T23:30:40.080Z,6.20
2023-05-30T23:33:06.752Z,5.47
2023-05-30T23:35:33.483Z,5.28
2023-05-30T23:38:00.220Z,4.50
2023-05-30T23:40:26.915Z,5.00
2023-05-30T23:42:53.663Z,3.83
2023-05-30T23:45:20.707Z,3.58
2023-05-30T23:47:48.850Z,4.47
2023-05-30T23:50:15.650Z,5.07
2023-05-30T23:52:44.664Z,5.80
2023-05-30T23:55:11.462Z,6.75
2023-05-30T23:57:38.280Z,5.63
